UAE985 KLAX-EGKK
Flight info
| Callsign | UAE985 |
|---|---|
| Flight time | N/A |
| Altitude | 35000 |
| Route | DOTSS2 CLEEE DCT PKE DCT HIDAT DCT KA27O DCT NABOB DCT KA27S DCT KA33W DCT KK39A DCT KK51G DCT KK54I DCT KG66O DCT GADAV DCT ANCER/N0486F370 N795B JANJO/M085F380 NATT KESIX/N0488F390 DCT MIMKU DCT SOSIM L15 KEPAD L151 DISIT DISIT1G |
| Aircraft | A380/J-SDE1FGHILORVWXY/L |
Departure
| Time | 2026-05-06 23:10 |
|---|---|
| Airport | Los Angeles International Airport (KLAX) |
Arrival
| Time | N/A |
|---|---|
| Airport | London Gatwick Airport (EGKK) |
| Time | Latitude | Longitude | Altitude | Speed | Heading |
|---|---|---|---|---|---|
| 2026-05-06 22:48 | 33.94009 | -118.41392 | 131 ft | 0 kts | 83° |
| 2026-05-06 22:54 | 33.94009 | -118.41393 | 131 ft | 0 kts | 83° |
| 2026-05-06 23:02 | 33.94009 | -118.41388 | 131 ft | 2 kts | 83° |
| 2026-05-06 23:02 | 33.94013 | -118.41351 | 120 ft | 7 kts | 83° |
| 2026-05-06 23:02 | 33.94021 | -118.41301 | 128 ft | 6 kts | 57° |
| 2026-05-06 23:02 | 33.94038 | -118.41274 | 125 ft | 3 kts | 34° |
| 2026-05-06 23:03 | 33.94062 | -118.41268 | 126 ft | 6 kts | 353° |
| 2026-05-06 23:03 | 33.94115 | -118.41286 | 128 ft | 10 kts | 342° |
| 2026-05-06 23:03 | 33.94197 | -118.41310 | 128 ft | 12 kts | 355° |
| 2026-05-06 23:03 | 33.94296 | -118.41327 | 128 ft | 14 kts | 356° |
| 2026-05-06 23:04 | 33.94390 | -118.41344 | 127 ft | 14 kts | 350° |
| 2026-05-06 23:04 | 33.94501 | -118.41361 | 128 ft | 18 kts | 353° |
| 2026-05-06 23:04 | 33.94589 | -118.41370 | 128 ft | 6 kts | 352° |
| 2026-05-06 23:04 | 33.94649 | -118.41380 | 128 ft | 11 kts | 352° |
| 2026-05-06 23:05 | 33.94716 | -118.41390 | 128 ft | 7 kts | 354° |
| 2026-05-06 23:05 | 33.94743 | -118.41387 | 128 ft | 6 kts | 20° |
| 2026-05-06 23:05 | 33.94780 | -118.41345 | 126 ft | 10 kts | 64° |
| 2026-05-06 23:05 | 33.94799 | -118.41245 | 127 ft | 15 kts | 81° |
| 2026-05-06 23:06 | 33.94810 | -118.41130 | 128 ft | 8 kts | 93° |
| 2026-05-06 23:06 | 33.94821 | -118.41041 | 126 ft | 14 kts | 78° |
| 2026-05-06 23:06 | 33.94835 | -118.40905 | 128 ft | 19 kts | 84° |
| 2026-05-06 23:06 | 33.94852 | -118.40720 | 130 ft | 25 kts | 83° |
| 2026-05-06 23:07 | 33.94873 | -118.40544 | 127 ft | 18 kts | 85° |
| 2026-05-06 23:07 | 33.94887 | -118.40375 | 127 ft | 23 kts | 83° |
| 2026-05-06 23:07 | 33.94907 | -118.40183 | 126 ft | 21 kts | 83° |
| 2026-05-06 23:07 | 33.94921 | -118.40029 | 128 ft | 14 kts | 83° |
| 2026-05-06 23:08 | 33.94954 | -118.39940 | 125 ft | 10 kts | 36° |
| 2026-05-06 23:08 | 33.94998 | -118.39923 | 128 ft | 6 kts | 355° |
| 2026-05-06 23:08 | 33.95027 | -118.39945 | 125 ft | 6 kts | 302° |
| 2026-05-06 23:08 | 33.95037 | -118.39974 | 127 ft | 3 kts | 275° |
| 2026-05-06 23:09 | 33.95036 | -118.39994 | 127 ft | 14 kts | 263° |
| 2026-05-06 23:09 | 33.95013 | -118.40231 | 128 ft | 19 kts | 269° |
| 2026-05-06 23:09 | 33.95004 | -118.40310 | 126 ft | 4 kts | 263° |
| 2026-05-06 23:09 | 33.94953 | -118.40649 | 126 ft | 78 kts | 253° |
| 2026-05-06 23:10 | 33.94877 | -118.41537 | 127 ft | 133 kts | 265° |
| 2026-05-06 23:10 | 33.94726 | -118.42779 | 147 ft | 163 kts | 256° |
| 2026-05-06 23:10 | 33.94628 | -118.44144 | 543 ft | 163 kts | 265° |
| 2026-05-06 23:10 | 33.94536 | -118.45487 | 1111 ft | 160 kts | 263° |
| 2026-05-06 23:11 | 33.94375 | -118.46873 | 1431 ft | 169 kts | 261° |
| 2026-05-06 23:11 | 33.94202 | -118.48252 | 1898 ft | 169 kts | 262° |
| 2026-05-06 23:11 | 33.94025 | -118.49688 | 2020 ft | 183 kts | 262° |
| 2026-05-06 23:11 | 33.93831 | -118.51257 | 2100 ft | 194 kts | 263° |
| 2026-05-06 23:12 | 33.93650 | -118.52915 | 2182 ft | 209 kts | 263° |
| 2026-05-06 23:12 | 33.93452 | -118.54728 | 2324 ft | 228 kts | 263° |
| 2026-05-06 23:12 | 33.93238 | -118.56708 | 2549 ft | 248 kts | 263° |
| 2026-05-06 23:12 | 33.93008 | -118.58820 | 2970 ft | 261 kts | 263° |
| 2026-05-06 23:13 | 33.92768 | -118.61021 | 3529 ft | 269 kts | 264° |
| 2026-05-06 23:13 | 33.92524 | -118.63264 | 4219 ft | 270 kts | 264° |
| 2026-05-06 23:13 | 33.92279 | -118.65518 | 4871 ft | 275 kts | 265° |
| 2026-05-06 23:13 | 33.92026 | -118.67825 | 5452 ft | 282 kts | 265° |
| 2026-05-06 23:14 | 33.91772 | -118.70174 | 6108 ft | 284 kts | 265° |
| 2026-05-06 23:14 | 33.91519 | -118.72515 | 6697 ft | 289 kts | 265° |
| 2026-05-06 23:14 | 33.91242 | -118.74921 | 7339 ft | 291 kts | 259° |
| 2026-05-06 23:14 | 33.90433 | -118.77167 | 7900 ft | 298 kts | 233° |
| 2026-05-06 23:15 | 33.88893 | -118.78839 | 8502 ft | 302 kts | 208° |
| 2026-05-06 23:15 | 33.86898 | -118.79633 | 8918 ft | 304 kts | 184° |
| 2026-05-06 23:15 | 33.84817 | -118.79420 | 8982 ft | 300 kts | 158° |
| 2026-05-06 23:15 | 33.83035 | -118.78207 | 8979 ft | 292 kts | 133° |
| 2026-05-06 23:16 | 33.81893 | -118.76253 | 8996 ft | 284 kts | 108° |
| 2026-05-06 23:16 | 33.81292 | -118.74007 | 8978 ft | 283 kts | 103° |
| 2026-05-06 23:16 | 33.80636 | -118.71748 | 9026 ft | 291 kts | 109° |
| 2026-05-06 23:16 | 33.79721 | -118.69494 | 9172 ft | 310 kts | 115° |
| 2026-05-06 23:17 | 33.78585 | -118.67243 | 9346 ft | 328 kts | 119° |
| 2026-05-06 23:17 | 33.77272 | -118.64908 | 9528 ft | 345 kts | 121° |
| 2026-05-06 23:17 | 33.75865 | -118.62503 | 9773 ft | 357 kts | 122° |
| 2026-05-06 23:17 | 33.74442 | -118.60103 | 10731 ft | 345 kts | 121° |
| 2026-05-06 23:18 | 33.73084 | -118.57815 | 11786 ft | 330 kts | 121° |
| 2026-05-06 23:18 | 33.71762 | -118.55567 | 12476 ft | 330 kts | 121° |
| 2026-05-06 23:18 | 33.70462 | -118.53300 | 13090 ft | 328 kts | 118° |
| 2026-05-06 23:18 | 33.69395 | -118.50891 | 13684 ft | 325 kts | 110° |
| 2026-05-06 23:19 | 33.68609 | -118.48360 | 14266 ft | 323 kts | 105° |
| 2026-05-06 23:19 | 33.67878 | -118.45810 | 14826 ft | 323 kts | 105° |
| 2026-05-06 23:19 | 33.67206 | -118.43521 | 15219 ft | 327 kts | 105° |
| 2026-05-06 23:19 | 33.66507 | -118.41162 | 15590 ft | 330 kts | 105° |
| 2026-05-06 23:20 | 33.65740 | -118.38586 | 16015 ft | 334 kts | 105° |
| 2026-05-06 23:20 | 33.65023 | -118.35934 | 16466 ft | 335 kts | 100° |
| 2026-05-06 23:20 | 33.64585 | -118.33179 | 16914 ft | 335 kts | 93° |
| 2026-05-06 23:20 | 33.64443 | -118.30391 | 17360 ft | 335 kts | 86° |
| 2026-05-06 23:21 | 33.64473 | -118.27594 | 17822 ft | 337 kts | 86° |
| 2026-05-06 23:21 | 33.64484 | -118.24776 | 18303 ft | 339 kts | 86° |
| 2026-05-06 23:21 | 33.64484 | -118.21944 | 18716 ft | 340 kts | 86° |
| 2026-05-06 23:21 | 33.64481 | -118.19136 | 19126 ft | 341 kts | 86° |
| 2026-05-06 23:22 | 33.64478 | -118.16287 | 19543 ft | 342 kts | 86° |
| 2026-05-06 23:22 | 33.64475 | -118.13434 | 19972 ft | 342 kts | 86° |
| 2026-05-06 23:22 | 33.64473 | -118.10572 | 20413 ft | 342 kts | 86° |
| 2026-05-06 23:22 | 33.64470 | -118.07717 | 20855 ft | 342 kts | 86° |
| 2026-05-06 23:23 | 33.64467 | -118.04869 | 21317 ft | 342 kts | 86° |
| 2026-05-06 23:23 | 33.64463 | -118.02014 | 21770 ft | 341 kts | 86° |
| 2026-05-06 23:23 | 33.64459 | -117.99178 | 22231 ft | 340 kts | 86° |
| 2026-05-06 23:23 | 33.64454 | -117.96345 | 22700 ft | 339 kts | 86° |
| 2026-05-06 23:24 | 33.64448 | -117.93525 | 23175 ft | 337 kts | 85° |
| 2026-05-06 23:24 | 33.64442 | -117.90720 | 23642 ft | 336 kts | 85° |
| 2026-05-06 23:24 | 33.64436 | -117.87940 | 23922 ft | 339 kts | 85° |
| 2026-05-06 23:24 | 33.64431 | -117.85092 | 24194 ft | 343 kts | 85° |
| 2026-05-06 23:25 | 33.64425 | -117.82217 | 24483 ft | 346 kts | 85° |
| 2026-05-06 23:25 | 33.64566 | -117.79334 | 24748 ft | 347 kts | 79° |
| 2026-05-06 23:25 | 33.64982 | -117.76458 | 24834 ft | 354 kts | 73° |
| 2026-05-06 23:25 | 33.65571 | -117.73560 | 24912 ft | 363 kts | 73° |
| 2026-05-06 23:26 | 33.66159 | -117.70570 | 24990 ft | 372 kts | 73° |
| 2026-05-06 23:26 | 33.66750 | -117.67508 | 25078 ft | 381 kts | 73° |
| 2026-05-06 23:26 | 33.67342 | -117.64413 | 25155 ft | 390 kts | 73° |
| 2026-05-06 23:26 | 33.67964 | -117.61165 | 25233 ft | 398 kts | 74° |
| 2026-05-06 23:27 | 33.68577 | -117.57951 | 25515 ft | 400 kts | 74° |
| 2026-05-06 23:27 | 33.69196 | -117.54701 | 25865 ft | 401 kts | 74° |
| 2026-05-06 23:27 | 33.69823 | -117.51414 | 26140 ft | 404 kts | 73° |
| 2026-05-06 23:27 | 33.70450 | -117.48122 | 26468 ft | 405 kts | 74° |
| 2026-05-06 23:28 | 33.71079 | -117.44820 | 26896 ft | 406 kts | 74° |
| 2026-05-06 23:28 | 33.71704 | -117.41531 | 27271 ft | 408 kts | 74° |
| 2026-05-06 23:28 | 33.72341 | -117.38184 | 27643 ft | 409 kts | 74° |
| 2026-05-06 23:28 | 33.72975 | -117.34839 | 27967 ft | 412 kts | 74° |
| 2026-05-06 23:29 | 33.73611 | -117.31478 | 28368 ft | 413 kts | 74° |
| 2026-05-06 23:29 | 33.74247 | -117.28113 | 28759 ft | 414 kts | 74° |
| 2026-05-06 23:29 | 33.74808 | -117.24697 | 29101 ft | 419 kts | 78° |
| 2026-05-06 23:29 | 33.75067 | -117.21193 | 29488 ft | 423 kts | 84° |
| 2026-05-06 23:30 | 33.75033 | -117.17640 | 29870 ft | 427 kts | 88° |
| 2026-05-06 23:30 | 33.74945 | -117.14106 | 30102 ft | 432 kts | 87° |
| 2026-05-06 23:30 | 33.74872 | -117.10503 | 30580 ft | 428 kts | 87° |
| 2026-05-06 23:30 | 33.74798 | -117.07009 | 31698 ft | 408 kts | 87° |
| 2026-05-06 23:31 | 33.74726 | -117.03651 | 32537 ft | 399 kts | 86° |
| 2026-05-06 23:31 | 33.74660 | -117.00294 | 32662 ft | 406 kts | 86° |
| 2026-05-06 23:31 | 33.74594 | -116.96881 | 32723 ft | 413 kts | 86° |
| 2026-05-06 23:32 | 33.74447 | -116.89847 | 32879 ft | 428 kts | 86° |
| 2026-05-06 23:32 | 33.74367 | -116.86272 | 33189 ft | 428 kts | 87° |
| 2026-05-06 23:32 | 33.74282 | -116.82752 | 34152 ft | 413 kts | 86° |
| 2026-05-06 23:32 | 33.74199 | -116.79375 | 34644 ft | 409 kts | 86° |
| 2026-05-06 23:33 | 33.74119 | -116.75953 | 34900 ft | 410 kts | 86° |
| 2026-05-06 23:33 | 33.74043 | -116.72512 | 35006 ft | 414 kts | 86° |
| 2026-05-06 23:33 | 33.73965 | -116.69024 | 35026 ft | 422 kts | 86° |
| 2026-05-06 23:34 | 33.73800 | -116.61868 | 35008 ft | 436 kts | 87° |
| 2026-05-06 23:34 | 33.73616 | -116.54452 | 35005 ft | 453 kts | 87° |
| 2026-05-06 23:35 | 33.73419 | -116.46800 | 34984 ft | 457 kts | 87° |
| 2026-05-06 23:35 | 33.73218 | -116.39244 | 34981 ft | 458 kts | 87° |
| 2026-05-06 23:36 | 33.73015 | -116.31583 | 34977 ft | 458 kts | 87° |
| 2026-05-06 23:36 | 33.72807 | -116.23934 | 34963 ft | 457 kts | 87° |
| 2026-05-06 23:37 | 33.72595 | -116.16334 | 34943 ft | 453 kts | 87° |
| 2026-05-06 23:37 | 33.72707 | -116.08839 | 34914 ft | 445 kts | 78° |
| 2026-05-06 23:38 | 33.73927 | -116.01674 | 34960 ft | 442 kts | 70° |
| 2026-05-06 23:38 | 33.75880 | -115.94653 | 34968 ft | 444 kts | 68° |
| 2026-05-06 23:39 | 33.77840 | -115.87590 | 34975 ft | 446 kts | 69° |
| 2026-05-06 23:39 | 33.79793 | -115.80514 | 34974 ft | 446 kts | 69° |
| 2026-05-06 23:40 | 33.81731 | -115.73486 | 34970 ft | 446 kts | 69° |
| 2026-05-06 23:40 | 33.83680 | -115.66406 | 34971 ft | 446 kts | 69° |
| 2026-05-06 23:41 | 33.85627 | -115.59316 | 34968 ft | 446 kts | 69° |
| 2026-05-06 23:41 | 33.87568 | -115.52226 | 34964 ft | 447 kts | 69° |
| 2026-05-06 23:42 | 33.89506 | -115.45127 | 34960 ft | 446 kts | 69° |
| 2026-05-06 23:42 | 33.91438 | -115.38038 | 34954 ft | 446 kts | 69° |
| 2026-05-06 23:43 | 33.93354 | -115.30988 | 34950 ft | 446 kts | 69° |
| 2026-05-06 23:43 | 33.95280 | -115.23878 | 34947 ft | 446 kts | 69° |
| 2026-05-06 23:44 | 33.97203 | -115.16771 | 34952 ft | 446 kts | 69° |
| 2026-05-06 23:44 | 33.99121 | -115.09662 | 34945 ft | 446 kts | 69° |
| 2026-05-06 23:45 | 34.01021 | -115.02597 | 34953 ft | 447 kts | 69° |
| 2026-05-06 23:45 | 34.02933 | -114.95469 | 34951 ft | 447 kts | 69° |
| 2026-05-06 23:46 | 34.04842 | -114.88336 | 34950 ft | 447 kts | 69° |
| 2026-05-06 23:46 | 34.06746 | -114.81202 | 34954 ft | 447 kts | 69° |
| 2026-05-06 23:47 | 34.08648 | -114.74059 | 34950 ft | 447 kts | 69° |
| 2026-05-06 23:47 | 34.10547 | -114.66917 | 34953 ft | 447 kts | 69° |
| 2026-05-06 23:48 | 34.12534 | -114.59814 | 34951 ft | 447 kts | 68° |
| 2026-05-06 23:48 | 34.14528 | -114.52770 | 34951 ft | 446 kts | 69° |
| 2026-05-06 23:49 | 34.16518 | -114.45669 | 34946 ft | 446 kts | 69° |
| 2026-05-06 23:49 | 34.18497 | -114.38569 | 34949 ft | 446 kts | 69° |
| 2026-05-06 23:50 | 34.20476 | -114.31452 | 34934 ft | 447 kts | 69° |
| 2026-05-06 23:50 | 34.23436 | -114.20771 | 34943 ft | 447 kts | 69° |
| 2026-05-06 23:51 | 34.25408 | -114.13631 | 34948 ft | 448 kts | 69° |
| 2026-05-06 23:51 | 34.27364 | -114.06540 | 34950 ft | 448 kts | 69° |
| 2026-05-06 23:52 | 34.29328 | -113.99394 | 34937 ft | 448 kts | 69° |
| 2026-05-06 23:52 | 34.31290 | -113.92231 | 34947 ft | 449 kts | 69° |
| 2026-05-06 23:53 | 34.33251 | -113.85059 | 34943 ft | 450 kts | 69° |
| 2026-05-06 23:53 | 34.35202 | -113.77906 | 34955 ft | 451 kts | 69° |
| 2026-05-06 23:54 | 34.37166 | -113.70686 | 34971 ft | 452 kts | 69° |
| 2026-05-06 23:54 | 34.39131 | -113.63444 | 34974 ft | 453 kts | 69° |
| 2026-05-06 23:55 | 34.41087 | -113.56211 | 34976 ft | 452 kts | 69° |
| 2026-05-06 23:55 | 34.43042 | -113.48967 | 34971 ft | 452 kts | 69° |
| 2026-05-06 23:56 | 34.44974 | -113.41790 | 34971 ft | 451 kts | 69° |
| 2026-05-06 23:56 | 34.46916 | -113.34555 | 34968 ft | 451 kts | 69° |
| 2026-05-06 23:57 | 34.48850 | -113.27331 | 34958 ft | 451 kts | 69° |
| 2026-05-06 23:57 | 34.50779 | -113.20106 | 34964 ft | 450 kts | 69° |
| 2026-05-06 23:58 | 34.52688 | -113.12937 | 34963 ft | 450 kts | 69° |
| 2026-05-06 23:58 | 34.54606 | -113.05718 | 34944 ft | 451 kts | 69° |
| 2026-05-06 23:59 | 34.56000 | -112.98277 | 34949 ft | 456 kts | 80° |
| 2026-05-06 23:59 | 34.56192 | -112.90546 | 34962 ft | 463 kts | 90° |
| 2026-05-07 00:00 | 34.55663 | -112.82739 | 34976 ft | 465 kts | 90° |
| 2026-05-07 00:00 | 34.55250 | -112.76237 | 34975 ft | 466 kts | 90° |
| 2026-05-07 00:01 | 34.54654 | -112.67103 | 34975 ft | 468 kts | 91° |
| 2026-05-07 00:01 | 34.54127 | -112.59232 | 34981 ft | 469 kts | 91° |
| 2026-05-07 00:02 | 34.53594 | -112.51341 | 34987 ft | 469 kts | 91° |
| 2026-05-07 00:02 | 34.53325 | -112.47391 | 35090 ft | 470 kts | 91° |
| 2026-05-07 00:02 | 34.53059 | -112.43497 | 35076 ft | 470 kts | 91° |
| 2026-05-07 00:03 | 34.52515 | -112.35590 | 35066 ft | 471 kts | 91° |
| 2026-05-07 00:03 | 34.51964 | -112.27670 | 35047 ft | 471 kts | 91° |
| 2026-05-07 00:04 | 34.51409 | -112.19755 | 35022 ft | 471 kts | 91° |
| 2026-05-07 00:04 | 34.50849 | -112.11833 | 34991 ft | 472 kts | 92° |
| 2026-05-07 00:05 | 34.50282 | -112.03951 | 34930 ft | 473 kts | 93° |
| 2026-05-07 00:05 | 34.49045 | -111.96091 | 34931 ft | 478 kts | 103° |
| 2026-05-07 00:06 | 34.47097 | -111.88375 | 34934 ft | 479 kts | 104° |
| 2026-05-07 00:06 | 34.45170 | -111.80617 | 34926 ft | 482 kts | 104° |
| 2026-05-07 00:07 | 34.43220 | -111.72798 | 34954 ft | 490 kts | 105° |
| 2026-05-07 00:07 | 34.41248 | -111.64936 | 34950 ft | 491 kts | 105° |
| 2026-05-07 00:08 | 34.39256 | -111.57025 | 34950 ft | 491 kts | 105° |
| 2026-05-07 00:08 | 34.37262 | -111.49121 | 35059 ft | 491 kts | 105° |
| 2026-05-07 00:09 | 34.35277 | -111.41279 | 35087 ft | 491 kts | 105° |
| 2026-05-07 00:09 | 34.33593 | -111.33305 | 35102 ft | 488 kts | 96° |
| 2026-05-07 00:10 | 34.33215 | -111.25110 | 35097 ft | 491 kts | 85° |
| 2026-05-07 00:10 | 34.33758 | -111.16804 | 35065 ft | 497 kts | 84° |
| 2026-05-07 00:11 | 34.34294 | -111.08443 | 35033 ft | 503 kts | 84° |
| 2026-05-07 00:11 | 34.34819 | -111.00084 | 35001 ft | 501 kts | 84° |
| 2026-05-07 00:12 | 34.35344 | -110.91677 | 34969 ft | 502 kts | 84° |
| 2026-05-07 00:12 | 34.35864 | -110.83263 | 34944 ft | 500 kts | 84° |
| 2026-05-07 00:13 | 34.36378 | -110.74871 | 34941 ft | 501 kts | 85° |
| 2026-05-07 00:13 | 34.36887 | -110.66447 | 34968 ft | 508 kts | 85° |
| 2026-05-07 00:14 | 34.37395 | -110.57935 | 34963 ft | 508 kts | 85° |
| 2026-05-07 00:14 | 34.37899 | -110.49415 | 34984 ft | 507 kts | 85° |
| 2026-05-07 00:15 | 34.38399 | -110.40866 | 35022 ft | 512 kts | 85° |
| 2026-05-07 00:15 | 34.38894 | -110.32280 | 35056 ft | 510 kts | 85° |
| 2026-05-07 00:16 | 34.39378 | -110.23788 | 35082 ft | 508 kts | 85° |
| 2026-05-07 00:16 | 34.39857 | -110.15272 | 35085 ft | 507 kts | 85° |
| 2026-05-07 00:17 | 34.40332 | -110.06746 | 35123 ft | 511 kts | 86° |
| 2026-05-07 00:17 | 34.40807 | -109.98097 | 35099 ft | 516 kts | 86° |
| 2026-05-07 00:18 | 34.41273 | -109.89477 | 35077 ft | 516 kts | 86° |
| 2026-05-07 00:18 | 34.41737 | -109.80808 | 35042 ft | 516 kts | 86° |
| 2026-05-07 00:19 | 34.42199 | -109.72061 | 35004 ft | 523 kts | 86° |
| 2026-05-07 00:19 | 34.42656 | -109.63272 | 34942 ft | 522 kts | 86° |
| 2026-05-07 00:20 | 34.43103 | -109.54557 | 34931 ft | 522 kts | 87° |
| 2026-05-07 00:20 | 34.43547 | -109.45788 | 34959 ft | 521 kts | 87° |
| 2026-05-07 00:21 | 34.43985 | -109.37013 | 34947 ft | 523 kts | 87° |
| 2026-05-07 00:21 | 34.44418 | -109.28209 | 34954 ft | 524 kts | 87° |
| 2026-05-07 00:22 | 34.44842 | -109.19449 | 34950 ft | 525 kts | 87° |
| 2026-05-07 00:22 | 34.45265 | -109.10604 | 34928 ft | 527 kts | 87° |
| 2026-05-07 00:23 | 34.45683 | -109.01711 | 34939 ft | 530 kts | 88° |
| 2026-05-07 00:23 | 34.46096 | -108.92771 | 34931 ft | 533 kts | 88° |
| 2026-05-07 00:24 | 34.46505 | -108.83798 | 34952 ft | 534 kts | 88° |
| 2026-05-07 00:24 | 34.46906 | -108.74847 | 34933 ft | 537 kts | 88° |
| 2026-05-07 00:25 | 34.47305 | -108.65790 | 34947 ft | 539 kts | 88° |
| 2026-05-07 00:25 | 34.47633 | -108.58246 | 34958 ft | 540 kts | 88° |
| 2026-05-07 00:26 | 34.48022 | -108.49144 | 34963 ft | 541 kts | 88° |
| 2026-05-07 00:26 | 34.48466 | -108.38546 | 34922 ft | 543 kts | 88° |
| 2026-05-07 00:27 | 34.48842 | -108.29390 | 34934 ft | 544 kts | 89° |
| 2026-05-07 00:27 | 34.49150 | -108.21770 | 34942 ft | 545 kts | 89° |
| 2026-05-07 00:28 | 34.49515 | -108.12590 | 34942 ft | 546 kts | 89° |
| 2026-05-07 00:28 | 34.49905 | -108.03402 | 34942 ft | 546 kts | 85° |
| 2026-05-07 00:29 | 34.51495 | -107.94400 | 34945 ft | 547 kts | 71° |
| 2026-05-07 00:30 | 34.56207 | -107.76912 | 34937 ft | 547 kts | 72° |
| 2026-05-07 00:30 | 34.58554 | -107.68115 | 34887 ft | 549 kts | 72° |
| 2026-05-07 00:31 | 34.60903 | -107.59284 | 34897 ft | 550 kts | 72° |
| 2026-05-07 00:31 | 34.63249 | -107.50433 | 34906 ft | 552 kts | 72° |
| 2026-05-07 00:32 | 34.65582 | -107.41601 | 34906 ft | 553 kts | 72° |
| 2026-05-07 00:32 | 34.67935 | -107.32668 | 34852 ft | 557 kts | 72° |
| 2026-05-07 00:33 | 34.70292 | -107.23688 | 34888 ft | 560 kts | 72° |
| 2026-05-07 00:33 | 34.72656 | -107.14656 | 34892 ft | 562 kts | 72° |
| 2026-05-07 00:34 | 34.75003 | -107.05652 | 34907 ft | 563 kts | 72° |
| 2026-05-07 00:34 | 34.77369 | -106.96543 | 34874 ft | 566 kts | 72° |
| 2026-05-07 00:35 | 34.79740 | -106.87384 | 35018 ft | 569 kts | 72° |
| 2026-05-07 00:35 | 34.82111 | -106.78196 | 35013 ft | 570 kts | 72° |
| 2026-05-07 00:36 | 34.84477 | -106.68992 | 35022 ft | 570 kts | 72° |
| 2026-05-07 00:36 | 34.86825 | -106.59828 | 35014 ft | 571 kts | 72° |
| 2026-05-07 00:37 | 34.89184 | -106.50588 | 35011 ft | 572 kts | 72° |
| 2026-05-07 00:37 | 34.91539 | -106.41335 | 35018 ft | 572 kts | 73° |
| 2026-05-07 00:38 | 34.93888 | -106.32070 | 34969 ft | 573 kts | 73° |
| 2026-05-07 00:38 | 34.96217 | -106.22852 | 34944 ft | 574 kts | 73° |
| 2026-05-07 00:39 | 34.98559 | -106.13544 | 34952 ft | 574 kts | 73° |
| 2026-05-07 00:39 | 35.00898 | -106.04218 | 34975 ft | 575 kts | 73° |
| 2026-05-07 00:40 | 35.03236 | -105.94865 | 34933 ft | 578 kts | 73° |
| 2026-05-07 00:40 | 35.05581 | -105.85447 | 34963 ft | 581 kts | 73° |
| 2026-05-07 00:41 | 35.07911 | -105.76052 | 34988 ft | 584 kts | 73° |
| 2026-05-07 00:41 | 35.10261 | -105.66543 | 35011 ft | 586 kts | 73° |
| 2026-05-07 00:42 | 35.12613 | -105.56993 | 34965 ft | 589 kts | 74° |
| 2026-05-07 00:42 | 35.14968 | -105.47392 | 34974 ft | 591 kts | 74° |
| 2026-05-07 00:43 | 35.17307 | -105.37822 | 34997 ft | 592 kts | 74° |
| 2026-05-07 00:43 | 35.19659 | -105.28162 | 35028 ft | 593 kts | 74° |
| 2026-05-07 00:44 | 35.22016 | -105.18441 | 34955 ft | 598 kts | 75° |
| 2026-05-07 00:44 | 35.24378 | -105.08662 | 34981 ft | 600 kts | 75° |
| 2026-05-07 00:45 | 35.26739 | -104.98848 | 35017 ft | 602 kts | 75° |
| 2026-05-07 00:45 | 35.29086 | -104.89057 | 35010 ft | 605 kts | 75° |
| 2026-05-07 00:46 | 35.31449 | -104.79162 | 35026 ft | 607 kts | 75° |
| 2026-05-07 00:46 | 35.33809 | -104.69233 | 35033 ft | 607 kts | 75° |
| 2026-05-07 00:47 | 35.36161 | -104.59303 | 35083 ft | 606 kts | 75° |
| 2026-05-07 00:47 | 35.37318 | -104.54400 | 35039 ft | 594 kts | 74° |
| 2026-05-07 00:47 | 35.38447 | -104.49612 | 35058 ft | 590 kts | 75° |
| 2026-05-07 00:48 | 35.40720 | -104.39936 | 35057 ft | 592 kts | 75° |
| 2026-05-07 00:48 | 35.42990 | -104.30234 | 35057 ft | 592 kts | 75° |
| 2026-05-07 00:49 | 35.45252 | -104.20532 | 35065 ft | 593 kts | 75° |
| 2026-05-07 00:49 | 35.47538 | -104.10690 | 35075 ft | 603 kts | 75° |
| 2026-05-07 00:50 | 35.49819 | -104.00852 | 35104 ft | 605 kts | 75° |
| 2026-05-07 00:50 | 35.52329 | -103.90977 | 35114 ft | 606 kts | 71° |
| 2026-05-07 00:51 | 35.55032 | -103.81182 | 35086 ft | 607 kts | 71° |
| 2026-05-07 00:51 | 35.57701 | -103.71330 | 35115 ft | 607 kts | 72° |
| 2026-05-07 00:52 | 35.60314 | -103.61546 | 35107 ft | 607 kts | 72° |
| 2026-05-07 00:52 | 35.62931 | -103.51686 | 35105 ft | 606 kts | 72° |
| 2026-05-07 00:53 | 35.65542 | -103.41816 | 35046 ft | 608 kts | 72° |
| 2026-05-07 00:53 | 35.68154 | -103.31905 | 35060 ft | 610 kts | 72° |
| 2026-05-07 00:54 | 35.70748 | -103.22024 | 35078 ft | 612 kts | 72° |
| 2026-05-07 00:54 | 35.73358 | -103.12045 | 35099 ft | 614 kts | 72° |
| 2026-05-07 00:55 | 35.75969 | -103.02025 | 35102 ft | 616 kts | 72° |
| 2026-05-07 00:55 | 35.78583 | -102.91954 | 35114 ft | 618 kts | 72° |
| 2026-05-07 00:56 | 35.81181 | -102.81908 | 35126 ft | 620 kts | 72° |
| 2026-05-07 00:56 | 35.83780 | -102.71814 | 35108 ft | 613 kts | 72° |
| 2026-05-07 00:57 | 35.86331 | -102.61876 | 35129 ft | 606 kts | 72° |
| 2026-05-07 00:57 | 35.88871 | -102.51935 | 35132 ft | 608 kts | 72° |
| 2026-05-07 00:58 | 35.91388 | -102.42052 | 35135 ft | 608 kts | 72° |
| 2026-05-07 00:58 | 35.93929 | -102.32031 | 35127 ft | 614 kts | 72° |
| 2026-05-07 00:59 | 35.97732 | -102.16959 | 35111 ft | 612 kts | 73° |
| 2026-05-07 01:00 | 36.00251 | -102.06931 | 35102 ft | 611 kts | 73° |
| 2026-05-07 01:00 | 36.02743 | -101.96967 | 35122 ft | 614 kts | 73° |
| 2026-05-07 01:01 | 36.05269 | -101.86830 | 35126 ft | 618 kts | 73° |
| 2026-05-07 01:01 | 36.07786 | -101.76684 | 35131 ft | 617 kts | 73° |
| 2026-05-07 01:02 | 36.10295 | -101.66534 | 35128 ft | 618 kts | 73° |
| 2026-05-07 01:02 | 36.12808 | -101.56324 | 35132 ft | 620 kts | 73° |
| 2026-05-07 01:03 | 36.15292 | -101.46191 | 35132 ft | 620 kts | 73° |
| 2026-05-07 01:03 | 36.17786 | -101.35974 | 35141 ft | 620 kts | 73° |
| 2026-05-07 01:04 | 36.20272 | -101.25750 | 35112 ft | 621 kts | 74° |
| 2026-05-07 01:04 | 36.22735 | -101.15577 | 35191 ft | 621 kts | 74° |
| 2026-05-07 01:05 | 36.25205 | -101.05327 | 35180 ft | 620 kts | 74° |
| 2026-05-07 01:05 | 36.27662 | -100.95101 | 35160 ft | 619 kts | 74° |
| 2026-05-07 01:06 | 36.30104 | -100.84890 | 35150 ft | 617 kts | 74° |
| 2026-05-07 01:06 | 36.32532 | -100.74692 | 35134 ft | 616 kts | 74° |
| 2026-05-07 01:07 | 36.34930 | -100.64581 | 35128 ft | 615 kts | 74° |
| 2026-05-07 01:07 | 36.37333 | -100.54404 | 35104 ft | 615 kts | 75° |
| 2026-05-07 01:08 | 36.39733 | -100.44197 | 35107 ft | 616 kts | 75° |
| 2026-05-07 01:08 | 36.42127 | -100.33972 | 35121 ft | 618 kts | 75° |
| 2026-05-07 01:09 | 36.44520 | -100.23707 | 35136 ft | 619 kts | 75° |
| 2026-05-07 01:09 | 36.46895 | -100.13480 | 35117 ft | 622 kts | 75° |
| 2026-05-07 01:10 | 36.49294 | -100.03126 | 35135 ft | 624 kts | 75° |
| 2026-05-07 01:10 | 36.52480 | -99.93096 | 35141 ft | 626 kts | 64° |
| 2026-05-07 01:11 | 36.56123 | -99.83259 | 35136 ft | 627 kts | 64° |
| 2026-05-07 01:11 | 36.59733 | -99.73437 | 35212 ft | 629 kts | 64° |
| 2026-05-07 01:12 | 36.63344 | -99.63546 | 35131 ft | 623 kts | 64° |
| 2026-05-07 01:12 | 36.66893 | -99.53780 | 35133 ft | 618 kts | 64° |
| 2026-05-07 01:13 | 36.70439 | -99.43985 | 35127 ft | 623 kts | 65° |
| 2026-05-07 01:13 | 36.74013 | -99.34081 | 35132 ft | 626 kts | 65° |
| 2026-05-07 01:14 | 36.77550 | -99.24245 | 35129 ft | 626 kts | 65° |
| 2026-05-07 01:14 | 36.81098 | -99.14345 | 35123 ft | 625 kts | 65° |
| 2026-05-07 01:15 | 36.84640 | -99.04434 | 35075 ft | 626 kts | 65° |
| 2026-05-07 01:15 | 36.88182 | -98.94490 | 35083 ft | 628 kts | 65° |
| 2026-05-07 01:16 | 36.91699 | -98.84582 | 35157 ft | 629 kts | 65° |
| 2026-05-07 01:16 | 36.95233 | -98.74594 | 35159 ft | 628 kts | 65° |
| 2026-05-07 01:17 | 36.98758 | -98.64601 | 35112 ft | 629 kts | 65° |
| 2026-05-07 01:17 | 37.02281 | -98.54579 | 35118 ft | 629 kts | 65° |
| 2026-05-07 01:18 | 37.05799 | -98.44536 | 35124 ft | 630 kts | 65° |
| 2026-05-07 01:18 | 37.09288 | -98.34544 | 35131 ft | 630 kts | 66° |
| 2026-05-07 01:19 | 37.12795 | -98.24466 | 35115 ft | 632 kts | 66° |
| 2026-05-07 01:19 | 37.16307 | -98.14340 | 35126 ft | 634 kts | 66° |
| 2026-05-07 01:20 | 37.19814 | -98.04197 | 35134 ft | 634 kts | 66° |
| 2026-05-07 01:20 | 37.23288 | -97.94111 | 35126 ft | 634 kts | 66° |
| 2026-05-07 01:21 | 37.26768 | -97.83974 | 35126 ft | 631 kts | 66° |
| 2026-05-07 01:21 | 37.30234 | -97.73847 | 35133 ft | 631 kts | 66° |
| 2026-05-07 01:22 | 37.33690 | -97.63712 | 35125 ft | 631 kts | 66° |
| 2026-05-07 01:22 | 37.37127 | -97.53597 | 35115 ft | 638 kts | 66° |
| 2026-05-07 01:23 | 37.40609 | -97.43318 | 35168 ft | 640 kts | 66° |
| 2026-05-07 01:23 | 37.44090 | -97.33002 | 35171 ft | 641 kts | 66° |
| 2026-05-07 01:24 | 37.47567 | -97.22664 | 35160 ft | 641 kts | 66° |
| 2026-05-07 01:24 | 37.51010 | -97.12390 | 35180 ft | 640 kts | 66° |
| 2026-05-07 01:25 | 37.54437 | -97.02127 | 35125 ft | 630 kts | 66° |
| 2026-05-07 01:25 | 37.57822 | -96.91954 | 35135 ft | 630 kts | 66° |
| 2026-05-07 01:26 | 37.61204 | -96.81757 | 35138 ft | 633 kts | 67° |
| 2026-05-07 01:26 | 37.64582 | -96.71534 | 35135 ft | 635 kts | 67° |
| 2026-05-07 01:27 | 37.67969 | -96.61248 | 35138 ft | 635 kts | 67° |
| 2026-05-07 01:27 | 37.71349 | -96.50949 | 35139 ft | 635 kts | 67° |
| 2026-05-07 01:28 | 37.74723 | -96.40627 | 35107 ft | 637 kts | 67° |
| 2026-05-07 01:28 | 37.78101 | -96.30259 | 35117 ft | 638 kts | 67° |
| 2026-05-07 01:29 | 37.81447 | -96.19952 | 35128 ft | 636 kts | 67° |
| 2026-05-07 01:29 | 37.84770 | -96.09678 | 35132 ft | 628 kts | 67° |
| 2026-05-07 01:30 | 37.88097 | -95.99355 | 35118 ft | 638 kts | 67° |
| 2026-05-07 01:30 | 37.91440 | -95.88945 | 35123 ft | 638 kts | 67° |
| 2026-05-07 01:31 | 37.94773 | -95.78527 | 35122 ft | 638 kts | 67° |
| 2026-05-07 01:31 | 37.98074 | -95.68173 | 35143 ft | 641 kts | 67° |
| 2026-05-07 01:32 | 38.01406 | -95.57682 | 35123 ft | 641 kts | 68° |
| 2026-05-07 01:32 | 38.04726 | -95.47189 | 35123 ft | 641 kts | 68° |
| 2026-05-07 01:33 | 38.08032 | -95.36703 | 35172 ft | 640 kts | 68° |
| 2026-05-07 01:33 | 38.11303 | -95.26290 | 35118 ft | 639 kts | 68° |
| 2026-05-07 01:34 | 38.14581 | -95.15813 | 35120 ft | 638 kts | 68° |
| 2026-05-07 01:34 | 38.17849 | -95.05332 | 35109 ft | 638 kts | 68° |
| 2026-05-07 01:35 | 38.21106 | -94.94843 | 35088 ft | 638 kts | 68° |
| 2026-05-07 01:35 | 38.24336 | -94.84406 | 35083 ft | 640 kts | 68° |
| 2026-05-07 01:36 | 38.27590 | -94.73849 | 35106 ft | 641 kts | 68° |
| 2026-05-07 01:36 | 38.30843 | -94.63257 | 35118 ft | 643 kts | 68° |
| 2026-05-07 01:37 | 38.34095 | -94.52625 | 35123 ft | 645 kts | 68° |
| 2026-05-07 01:37 | 38.37346 | -94.41960 | 35135 ft | 647 kts | 68° |
| 2026-05-07 01:38 | 38.40571 | -94.31333 | 35150 ft | 647 kts | 68° |
| 2026-05-07 01:38 | 38.43814 | -94.20616 | 35152 ft | 648 kts | 68° |
| 2026-05-07 01:39 | 38.47053 | -94.09890 | 35135 ft | 648 kts | 68° |
| 2026-05-07 01:39 | 38.50230 | -93.99123 | 35143 ft | 649 kts | 72° |
| 2026-05-07 01:40 | 38.52988 | -93.88241 | 35133 ft | 648 kts | 71° |
| 2026-05-07 01:40 | 38.55866 | -93.77317 | 35112 ft | 649 kts | 71° |
| 2026-05-07 01:41 | 38.58704 | -93.66370 | 35111 ft | 649 kts | 72° |
| 2026-05-07 01:41 | 38.61516 | -93.55404 | 35133 ft | 650 kts | 72° |
| 2026-05-07 01:42 | 38.64318 | -93.44417 | 35129 ft | 649 kts | 72° |
| 2026-05-07 01:42 | 38.67087 | -93.33514 | 35113 ft | 649 kts | 72° |
| 2026-05-07 01:43 | 38.69862 | -93.22541 | 35109 ft | 648 kts | 72° |
| 2026-05-07 01:43 | 38.72625 | -93.11565 | 35100 ft | 647 kts | 72° |
| 2026-05-07 01:44 | 38.75376 | -93.00588 | 35079 ft | 647 kts | 72° |
| 2026-05-07 01:44 | 38.78101 | -92.89663 | 35081 ft | 648 kts | 72° |
| 2026-05-07 01:45 | 38.80834 | -92.78660 | 35104 ft | 649 kts | 72° |
| 2026-05-07 01:45 | 38.83562 | -92.67624 | 35114 ft | 649 kts | 72° |
| 2026-05-07 01:46 | 38.86282 | -92.56574 | 35104 ft | 650 kts | 72° |
| 2026-05-07 01:46 | 38.88980 | -92.45561 | 35127 ft | 651 kts | 73° |
| 2026-05-07 01:47 | 38.91684 | -92.34470 | 35116 ft | 651 kts | 73° |
| 2026-05-07 01:47 | 38.94379 | -92.23367 | 35096 ft | 651 kts | 73° |
| 2026-05-07 01:48 | 38.97064 | -92.12252 | 35095 ft | 651 kts | 73° |
| 2026-05-07 01:48 | 38.99756 | -92.01143 | 35088 ft | 651 kts | 70° |
| 2026-05-07 01:49 | 39.03439 | -91.90631 | 35080 ft | 649 kts | 62° |
| 2026-05-07 01:49 | 39.07309 | -91.80134 | 35102 ft | 650 kts | 62° |
| 2026-05-07 01:50 | 39.11175 | -91.69606 | 35167 ft | 650 kts | 62° |
| 2026-05-07 01:50 | 39.15032 | -91.59061 | 35121 ft | 651 kts | 62° |
| 2026-05-07 01:51 | 39.18849 | -91.48571 | 35094 ft | 651 kts | 62° |
| 2026-05-07 01:51 | 39.22682 | -91.37994 | 35087 ft | 651 kts | 63° |
| 2026-05-07 01:52 | 39.26504 | -91.27409 | 35087 ft | 651 kts | 63° |
| 2026-05-07 01:52 | 39.30314 | -91.16821 | 35081 ft | 651 kts | 63° |
| 2026-05-07 01:53 | 39.34122 | -91.06200 | 35073 ft | 651 kts | 63° |
| 2026-05-07 01:53 | 39.37895 | -90.95638 | 35108 ft | 652 kts | 63° |
| 2026-05-07 01:54 | 39.41684 | -90.84991 | 35105 ft | 651 kts | 63° |
| 2026-05-07 01:54 | 39.45458 | -90.74351 | 35088 ft | 651 kts | 63° |
| 2026-05-07 01:55 | 39.49223 | -90.63696 | 35091 ft | 651 kts | 63° |
| 2026-05-07 01:55 | 39.52953 | -90.53102 | 35085 ft | 651 kts | 63° |
| 2026-05-07 01:56 | 39.56698 | -90.42424 | 35080 ft | 652 kts | 63° |
| 2026-05-07 01:56 | 39.60443 | -90.31708 | 35103 ft | 652 kts | 63° |
| 2026-05-07 01:57 | 39.64171 | -90.21001 | 35099 ft | 651 kts | 63° |
| 2026-05-07 01:57 | 39.67862 | -90.10361 | 35090 ft | 650 kts | 63° |
| 2026-05-07 01:58 | 39.71561 | -89.99657 | 35075 ft | 650 kts | 63° |
| 2026-05-07 01:58 | 39.75255 | -89.88931 | 35060 ft | 650 kts | 63° |
| 2026-05-07 01:59 | 39.78938 | -89.78195 | 35073 ft | 651 kts | 63° |
| 2026-05-07 01:59 | 39.82596 | -89.67492 | 35132 ft | 651 kts | 64° |
| 2026-05-07 02:00 | 39.86256 | -89.56739 | 35104 ft | 649 kts | 64° |
| 2026-05-07 02:00 | 39.89898 | -89.46001 | 35092 ft | 648 kts | 64° |
| 2026-05-07 02:01 | 39.93526 | -89.35264 | 35082 ft | 647 kts | 64° |
| 2026-05-07 02:01 | 39.97139 | -89.24531 | 35071 ft | 646 kts | 64° |
| 2026-05-07 02:02 | 40.00715 | -89.13869 | 35029 ft | 646 kts | 64° |
| 2026-05-07 02:02 | 40.04306 | -89.03122 | 35108 ft | 646 kts | 64° |
| 2026-05-07 02:03 | 40.07884 | -88.92368 | 35107 ft | 644 kts | 64° |
| 2026-05-07 02:03 | 40.11437 | -88.81650 | 35064 ft | 643 kts | 64° |
| 2026-05-07 02:04 | 40.14961 | -88.70982 | 35057 ft | 643 kts | 64° |
| 2026-05-07 02:04 | 40.18496 | -88.60238 | 35057 ft | 643 kts | 64° |
| 2026-05-07 02:05 | 40.22023 | -88.49475 | 35056 ft | 644 kts | 64° |
| 2026-05-07 02:05 | 40.25540 | -88.38702 | 35094 ft | 645 kts | 64° |
| 2026-05-07 02:06 | 40.29027 | -88.27979 | 35094 ft | 643 kts | 64° |
| 2026-05-07 02:06 | 40.32519 | -88.17198 | 35084 ft | 642 kts | 64° |
| 2026-05-07 02:07 | 40.35992 | -88.06435 | 35046 ft | 641 kts | 64° |
| 2026-05-07 02:07 | 40.41190 | -87.90251 | 35041 ft | 642 kts | 65° |
| 2026-05-07 02:08 | 40.44625 | -87.79501 | 35049 ft | 643 kts | 65° |
| 2026-05-07 02:08 | 40.48075 | -87.68662 | 35053 ft | 643 kts | 65° |
| 2026-05-07 02:09 | 40.51505 | -87.57839 | 35060 ft | 641 kts | 65° |
| 2026-05-07 02:09 | 40.54918 | -87.47030 | 35053 ft | 641 kts | 65° |
| 2026-05-07 02:10 | 40.58304 | -87.36266 | 35051 ft | 641 kts | 65° |
| 2026-05-07 02:10 | 40.61710 | -87.25396 | 35053 ft | 646 kts | 65° |
| 2026-05-07 02:11 | 40.65121 | -87.14463 | 35044 ft | 645 kts | 65° |
| 2026-05-07 02:11 | 40.68514 | -87.03544 | 35033 ft | 644 kts | 65° |
| 2026-05-07 02:12 | 40.71893 | -86.92624 | 34989 ft | 644 kts | 65° |
| 2026-05-07 02:12 | 40.75259 | -86.81709 | 35039 ft | 651 kts | 65° |
| 2026-05-07 02:13 | 40.78657 | -86.70639 | 35032 ft | 651 kts | 65° |
| 2026-05-07 02:13 | 40.82043 | -86.59560 | 35029 ft | 651 kts | 65° |
| 2026-05-07 02:14 | 40.85407 | -86.48513 | 35036 ft | 654 kts | 65° |
| 2026-05-07 02:14 | 40.88746 | -86.37492 | 35025 ft | 642 kts | 66° |
| 2026-05-07 02:15 | 40.92068 | -86.26492 | 35023 ft | 645 kts | 66° |
| 2026-05-07 02:15 | 40.95390 | -86.15466 | 35002 ft | 649 kts | 66° |
| 2026-05-07 02:16 | 40.98715 | -86.04401 | 35027 ft | 651 kts | 66° |
| 2026-05-07 02:16 | 41.02927 | -85.93934 | 35030 ft | 640 kts | 50° |
| 2026-05-07 02:17 | 41.08007 | -85.84260 | 35072 ft | 639 kts | 49° |
| 2026-05-07 02:17 | 41.12991 | -85.74670 | 35018 ft | 625 kts | 50° |
| 2026-05-07 02:18 | 41.17871 | -85.65138 | 35019 ft | 626 kts | 50° |
| 2026-05-07 02:18 | 41.22709 | -85.55627 | 35018 ft | 626 kts | 50° |
| 2026-05-07 02:19 | 41.27571 | -85.46033 | 35028 ft | 621 kts | 51° |
| 2026-05-07 02:19 | 41.32352 | -85.36567 | 35014 ft | 620 kts | 50° |
| 2026-05-07 02:20 | 41.37163 | -85.27024 | 35009 ft | 621 kts | 51° |
| 2026-05-07 02:20 | 41.41932 | -85.17527 | 35009 ft | 621 kts | 51° |
| 2026-05-07 02:21 | 41.46727 | -85.07949 | 35066 ft | 619 kts | 51° |
| 2026-05-07 02:21 | 41.51445 | -84.98488 | 35005 ft | 614 kts | 51° |
| 2026-05-07 02:22 | 41.56174 | -84.88990 | 35012 ft | 614 kts | 51° |
| 2026-05-07 02:22 | 41.60897 | -84.79470 | 35010 ft | 615 kts | 51° |
| 2026-05-07 02:23 | 41.65577 | -84.70003 | 35061 ft | 614 kts | 51° |
| 2026-05-07 02:23 | 41.70242 | -84.60536 | 34976 ft | 606 kts | 52° |
| 2026-05-07 02:24 | 41.74863 | -84.51133 | 35008 ft | 608 kts | 52° |
| 2026-05-07 02:24 | 41.79538 | -84.41599 | 35006 ft | 612 kts | 52° |
| 2026-05-07 02:25 | 41.84160 | -84.32130 | 35014 ft | 611 kts | 52° |
| 2026-05-07 02:25 | 41.88807 | -84.22580 | 35017 ft | 612 kts | 52° |
| 2026-05-07 02:26 | 41.93457 | -84.13000 | 35018 ft | 612 kts | 52° |
| 2026-05-07 02:26 | 41.98099 | -84.03404 | 35026 ft | 613 kts | 52° |
| 2026-05-07 02:27 | 42.02735 | -83.93787 | 35026 ft | 613 kts | 52° |
| 2026-05-07 02:27 | 42.07333 | -83.84223 | 35039 ft | 612 kts | 53° |
| 2026-05-07 02:28 | 42.11940 | -83.74606 | 35016 ft | 611 kts | 53° |
| 2026-05-07 02:28 | 42.16534 | -83.64987 | 35003 ft | 610 kts | 53° |
| 2026-05-07 02:29 | 42.21110 | -83.55377 | 34999 ft | 609 kts | 53° |
| 2026-05-07 02:29 | 42.25637 | -83.45836 | 35021 ft | 607 kts | 53° |
| 2026-05-07 02:30 | 42.30174 | -83.36245 | 35008 ft | 605 kts | 53° |
| 2026-05-07 02:30 | 42.34694 | -83.26660 | 34996 ft | 604 kts | 53° |
| 2026-05-07 02:31 | 42.39198 | -83.17078 | 34981 ft | 603 kts | 53° |
| 2026-05-07 02:31 | 42.43686 | -83.07499 | 35002 ft | 602 kts | 53° |
| 2026-05-07 02:32 | 42.48125 | -82.97993 | 34992 ft | 600 kts | 53° |
| 2026-05-07 02:32 | 42.52577 | -82.88431 | 34946 ft | 599 kts | 53° |
| 2026-05-07 02:33 | 42.57014 | -82.78869 | 34940 ft | 599 kts | 53° |
| 2026-05-07 02:33 | 42.61436 | -82.69310 | 34928 ft | 598 kts | 53° |
| 2026-05-07 02:34 | 42.65820 | -82.59805 | 34938 ft | 598 kts | 53° |
| 2026-05-07 02:34 | 42.70237 | -82.50210 | 34956 ft | 599 kts | 54° |
| 2026-05-07 02:35 | 42.74959 | -82.40950 | 34973 ft | 594 kts | 47° |
| 2026-05-07 02:35 | 42.80062 | -82.32075 | 35000 ft | 595 kts | 47° |
| 2026-05-07 02:36 | 42.85073 | -82.23169 | 35004 ft | 596 kts | 47° |
| 2026-05-07 02:36 | 42.90070 | -82.14148 | 34997 ft | 596 kts | 48° |
| 2026-05-07 02:37 | 42.95057 | -82.05101 | 34996 ft | 596 kts | 48° |
| 2026-05-07 02:37 | 42.97540 | -82.00588 | 35030 ft | 595 kts | 48° |